Terminal Aerodrome Forecast
Issued by NWS

Home | Current Version | Previous Version | Graphics & Text | Print | Product List | Glossary On
Versions: 1 2 3 4 5 6 7 8 9 10 11 12
941
FTUS43 KICT 031722
TAFRSL
TAF
KRSL 031722Z 0318/0418 33006KT P6SM FEW050 SCT090
     FM040200 28009KT P6SM SKC
     FM041200 35012KT P6SM SKC=

USA.gov is the U.S. government's official web portal to all federal, state and local government web resources and services.